Avon Lake, Iowa
Current Conditions -  °F | °C
As of 2:54 AM on Wednesday 28 Jan 2015 (Local Time) from KDSM Reporting Station
Haze Haze  
Wind Chill: 20°   Ceiling: 500
Heat Index: 30°   Visibility: 5mi
Dew Point: 27°   Wind: 13mph
Humidity: 88%   Direction: 130°SE
Pressure: 30.08"   Gusts: NA
Location:  41.4707°N, 93.4797°W
Report Text: KDSM 280854Z 13011KT 5SM BR OVC005 M01/M03 A3008 RMK AO2 SLP194 T10111028 58013
Loading
Personal Weather Stations






























Interactive Weather Map New forecast layout! Learn more

10-Day Weather Forecast

Advertisements
Track Severe Weather on mobile